sensor_id;sensor_type;location;lat;lon;timestamp;P1;durP1;ratioP1;P2;durP2;ratioP2
71836;SDS011;59686;51.716;7.016;2022-10-24T00:00:34;5.38;;;2.50;;
71836;SDS011;59686;51.716;7.016;2022-10-24T00:03:03;7.72;;;2.72;;
71836;SDS011;59686;51.716;7.016;2022-10-24T00:05:29;5.13;;;2.70;;
71836;SDS011;59686;51.716;7.016;2022-10-24T00:07:54;4.22;;;2.60;;
71836;SDS011;59686;51.716;7.016;2022-10-24T00:10:20;4.60;;;2.42;;
71836;SDS011;59686;51.716;7.016;2022-10-24T00:12:46;4.35;;;2.28;;
71836;SDS011;59686;51.716;7.016;2022-10-24T00:15:12;5.65;;;2.40;;
71836;SDS011;59686;51.716;7.016;2022-10-24T00:17:38;5.85;;;2.47;;
71836;SDS011;59686;51.716;7.016;2022-10-24T00:20:04;5.47;;;2.47;;
71836;SDS011;59686;51.716;7.016;2022-10-24T00:22:31;3.63;;;2.40;;
71836;SDS011;59686;51.716;7.016;2022-10-24T00:24:56;6.03;;;2.60;;
71836;SDS011;59686;51.716;7.016;2022-10-24T00:27:22;5.25;;;2.70;;
71836;SDS011;59686;51.716;7.016;2022-10-24T00:29:48;6.15;;;2.58;;
71836;SDS011;59686;51.716;7.016;2022-10-24T00:32:14;5.40;;;2.67;;
71836;SDS011;59686;51.716;7.016;2022-10-24T00:34:40;4.38;;;2.05;;
71836;SDS011;59686;51.716;7.016;2022-10-24T00:37:06;5.93;;;2.60;;
71836;SDS011;59686;51.716;7.016;2022-10-24T00:39:31;5.22;;;2.30;;
71836;SDS011;59686;51.716;7.016;2022-10-24T00:41:57;4.78;;;2.50;;
71836;SDS011;59686;51.716;7.016;2022-10-24T00:44:25;4.75;;;2.60;;
71836;SDS011;59686;51.716;7.016;2022-10-24T00:52:30;5.38;;;2.58;;
71836;SDS011;59686;51.716;7.016;2022-10-24T00:55:03;4.47;;;2.50;;
71836;SDS011;59686;51.716;7.016;2022-10-24T00:57:34;3.35;;;2.15;;
71836;SDS011;59686;51.716;7.016;2022-10-24T01:00:06;5.45;;;2.47;;
71836;SDS011;59686;51.716;7.016;2022-10-24T01:02:43;5.00;;;2.38;;
71836;SDS011;59686;51.716;7.016;2022-10-24T01:05:09;5.18;;;2.40;;
71836;SDS011;59686;51.716;7.016;2022-10-24T01:29:36;3.88;;;2.45;;
71836;SDS011;59686;51.716;7.016;2022-10-24T01:32:07;4.35;;;2.63;;
71836;SDS011;59686;51.716;7.016;2022-10-24T01:40:13;4.15;;;3.13;;
71836;SDS011;59686;51.716;7.016;2022-10-24T01:42:43;9.35;;;3.10;;
71836;SDS011;59686;51.716;7.016;2022-10-24T01:45:12;6.53;;;2.90;;
71836;SDS011;59686;51.716;7.016;2022-10-24T01:47:46;4.45;;;2.47;;
71836;SDS011;59686;51.716;7.016;2022-10-24T01:50:16;4.72;;;2.40;;
71836;SDS011;59686;51.716;7.016;2022-10-24T01:52:45;4.75;;;2.53;;
71836;SDS011;59686;51.716;7.016;2022-10-24T01:55:12;6.65;;;2.85;;
71836;SDS011;59686;51.716;7.016;2022-10-24T01:57:38;8.05;;;2.85;;
71836;SDS011;59686;51.716;7.016;2022-10-24T02:00:05;5.15;;;2.80;;
71836;SDS011;59686;51.716;7.016;2022-10-24T02:02:38;6.55;;;2.60;;
71836;SDS011;59686;51.716;7.016;2022-10-24T02:05:08;6.25;;;3.22;;
71836;SDS011;59686;51.716;7.016;2022-10-24T02:07:39;4.47;;;3.00;;
71836;SDS011;59686;51.716;7.016;2022-10-24T02:10:10;5.47;;;2.83;;
71836;SDS011;59686;51.716;7.016;2022-10-24T02:12:41;5.32;;;2.75;;
71836;SDS011;59686;51.716;7.016;2022-10-24T02:15:12;6.47;;;2.65;;
71836;SDS011;59686;51.716;7.016;2022-10-24T02:17:43;3.75;;;2.47;;
71836;SDS011;59686;51.716;7.016;2022-10-24T02:20:11;5.75;;;2.78;;
71836;SDS011;59686;51.716;7.016;2022-10-24T02:22:48;3.67;;;2.60;;
71836;SDS011;59686;51.716;7.016;2022-10-24T02:25:25;5.00;;;2.60;;
71836;SDS011;59686;51.716;7.016;2022-10-24T02:28:17;4.13;;;2.60;;
71836;SDS011;59686;51.716;7.016;2022-10-24T02:30:57;4.95;;;2.85;;
71836;SDS011;59686;51.716;7.016;2022-10-24T02:33:26;6.90;;;2.53;;
71836;SDS011;59686;51.716;7.016;2022-10-24T02:35:53;3.00;;;2.28;;
71836;SDS011;59686;51.716;7.016;2022-10-24T02:38:22;6.28;;;2.67;;
71836;SDS011;59686;51.716;7.016;2022-10-24T02:40:54;4.35;;;2.30;;
71836;SDS011;59686;51.716;7.016;2022-10-24T02:43:22;10.30;;;2.40;;
71836;SDS011;59686;51.716;7.016;2022-10-24T02:45:50;4.90;;;2.47;;
71836;SDS011;59686;51.716;7.016;2022-10-24T02:48:20;4.72;;;2.40;;
71836;SDS011;59686;51.716;7.016;2022-10-24T02:50:49;4.93;;;2.33;;
71836;SDS011;59686;51.716;7.016;2022-10-24T02:53:19;3.83;;;2.40;;
71836;SDS011;59686;51.716;7.016;2022-10-24T02:55:48;3.55;;;2.42;;
71836;SDS011;59686;51.716;7.016;2022-10-24T02:58:13;6.75;;;2.65;;
71836;SDS011;59686;51.716;7.016;2022-10-24T03:00:39;5.25;;;2.38;;
71836;SDS011;59686;51.716;7.016;2022-10-24T03:03:05;3.90;;;2.50;;
71836;SDS011;59686;51.716;7.016;2022-10-24T03:05:31;7.05;;;2.58;;
71836;SDS011;59686;51.716;7.016;2022-10-24T03:07:57;5.10;;;2.85;;
71836;SDS011;59686;51.716;7.016;2022-10-24T03:10:22;6.53;;;2.53;;
71836;SDS011;59686;51.716;7.016;2022-10-24T03:12:48;4.13;;;2.22;;
71836;SDS011;59686;51.716;7.016;2022-10-24T03:15:14;3.95;;;2.30;;
71836;SDS011;59686;51.716;7.016;2022-10-24T03:17:49;7.63;;;2.60;;
71836;SDS011;59686;51.716;7.016;2022-10-24T03:20:15;6.22;;;2.28;;
71836;SDS011;59686;51.716;7.016;2022-10-24T03:22:41;5.65;;;2.20;;
71836;SDS011;59686;51.716;7.016;2022-10-24T03:25:07;4.70;;;2.08;;
71836;SDS011;59686;51.716;7.016;2022-10-24T03:27:35;4.60;;;2.38;;
71836;SDS011;59686;51.716;7.016;2022-10-24T03:30:01;6.78;;;2.53;;
71836;SDS011;59686;51.716;7.016;2022-10-24T03:32:26;5.22;;;2.50;;
71836;SDS011;59686;51.716;7.016;2022-10-24T03:34:52;4.85;;;2.30;;
71836;SDS011;59686;51.716;7.016;2022-10-24T03:37:18;4.25;;;2.25;;
71836;SDS011;59686;51.716;7.016;2022-10-24T03:42:13;5.20;;;2.17;;
71836;SDS011;59686;51.716;7.016;2022-10-24T03:44:39;4.38;;;2.13;;
71836;SDS011;59686;51.716;7.016;2022-10-24T03:47:05;3.90;;;2.20;;
71836;SDS011;59686;51.716;7.016;2022-10-24T03:49:30;3.78;;;2.30;;
71836;SDS011;59686;51.716;7.016;2022-10-24T03:51:56;4.88;;;2.08;;
71836;SDS011;59686;51.716;7.016;2022-10-24T03:54:24;4.45;;;2.38;;
71836;SDS011;59686;51.716;7.016;2022-10-24T03:56:49;6.07;;;2.40;;
71836;SDS011;59686;51.716;7.016;2022-10-24T03:59:16;5.78;;;2.33;;
71836;SDS011;59686;51.716;7.016;2022-10-24T04:01:42;6.43;;;2.45;;
71836;SDS011;59686;51.716;7.016;2022-10-24T04:04:07;4.65;;;1.85;;
71836;SDS011;59686;51.716;7.016;2022-10-24T04:06:33;2.55;;;2.03;;
71836;SDS011;59686;51.716;7.016;2022-10-24T04:09:08;4.22;;;2.20;;
71836;SDS011;59686;51.716;7.016;2022-10-24T04:11:34;3.53;;;2.10;;
71836;SDS011;59686;51.716;7.016;2022-10-24T04:13:59;4.55;;;2.20;;
71836;SDS011;59686;51.716;7.016;2022-10-24T04:16:25;3.90;;;2.05;;
71836;SDS011;59686;51.716;7.016;2022-10-24T04:18:51;4.63;;;2.10;;
71836;SDS011;59686;51.716;7.016;2022-10-24T04:23:53;5.80;;;2.33;;
71836;SDS011;59686;51.716;7.016;2022-10-24T04:26:18;5.60;;;2.30;;
71836;SDS011;59686;51.716;7.016;2022-10-24T04:28:44;5.85;;;2.10;;
71836;SDS011;59686;51.716;7.016;2022-10-24T04:31:13;6.13;;;2.40;;
71836;SDS011;59686;51.716;7.016;2022-10-24T04:33:39;3.25;;;2.30;;
71836;SDS011;59686;51.716;7.016;2022-10-24T04:36:04;5.07;;;2.33;;
71836;SDS011;59686;51.716;7.016;2022-10-24T04:38:30;5.57;;;2.17;;
71836;SDS011;59686;51.716;7.016;2022-10-24T04:41:03;2.85;;;1.90;;
71836;SDS011;59686;51.716;7.016;2022-10-24T04:43:29;3.53;;;2.25;;
71836;SDS011;59686;51.716;7.016;2022-10-24T04:45:55;4.43;;;1.70;;
71836;SDS011;59686;51.716;7.016;2022-10-24T04:48:20;5.93;;;2.47;;
71836;SDS011;59686;51.716;7.016;2022-10-24T04:50:46;5.43;;;2.50;;
71836;SDS011;59686;51.716;7.016;2022-10-24T04:53:12;3.42;;;2.28;;
71836;SDS011;59686;51.716;7.016;2022-10-24T04:55:39;5.05;;;1.90;;
71836;SDS011;59686;51.716;7.016;2022-10-24T04:58:05;4.60;;;2.25;;
71836;SDS011;59686;51.716;7.016;2022-10-24T05:00:31;4.28;;;2.10;;
71836;SDS011;59686;51.716;7.016;2022-10-24T05:02:56;4.85;;;2.55;;
71836;SDS011;59686;51.716;7.016;2022-10-24T05:05:22;3.47;;;2.22;;
71836;SDS011;59686;51.716;7.016;2022-10-24T05:07:48;4.40;;;1.90;;
71836;SDS011;59686;51.716;7.016;2022-10-24T05:10:14;7.82;;;2.33;;
71836;SDS011;59686;51.716;7.016;2022-10-24T05:12:41;5.38;;;1.83;;
71836;SDS011;59686;51.716;7.016;2022-10-24T05:15:08;5.68;;;2.25;;
71836;SDS011;59686;51.716;7.016;2022-10-24T05:17:35;5.50;;;2.65;;
71836;SDS011;59686;51.716;7.016;2022-10-24T05:20:01;5.97;;;2.33;;
71836;SDS011;59686;51.716;7.016;2022-10-24T05:22:39;7.03;;;2.00;;
71836;SDS011;59686;51.716;7.016;2022-10-24T05:25:05;6.65;;;2.17;;
71836;SDS011;59686;51.716;7.016;2022-10-24T05:27:31;7.35;;;2.00;;
71836;SDS011;59686;51.716;7.016;2022-10-24T05:29:56;4.35;;;2.20;;
71836;SDS011;59686;51.716;7.016;2022-10-24T05:32:23;5.38;;;2.40;;
71836;SDS011;59686;51.716;7.016;2022-10-24T05:34:49;4.22;;;2.33;;
71836;SDS011;59686;51.716;7.016;2022-10-24T05:37:15;6.55;;;2.67;;
71836;SDS011;59686;51.716;7.016;2022-10-24T05:39:45;5.70;;;2.17;;
71836;SDS011;59686;51.716;7.016;2022-10-24T05:42:11;4.72;;;2.35;;
71836;SDS011;59686;51.716;7.016;2022-10-24T05:44:37;4.57;;;2.00;;
71836;SDS011;59686;51.716;7.016;2022-10-24T05:47:03;4.97;;;2.00;;
71836;SDS011;59686;51.716;7.016;2022-10-24T05:49:29;6.47;;;2.35;;
71836;SDS011;59686;51.716;7.016;2022-10-24T05:51:55;5.03;;;2.20;;
71836;SDS011;59686;51.716;7.016;2022-10-24T05:54:20;3.53;;;1.95;;
71836;SDS011;59686;51.716;7.016;2022-10-24T05:56:51;3.67;;;2.00;;
71836;SDS011;59686;51.716;7.016;2022-10-24T05:59:17;5.05;;;2.33;;
71836;SDS011;59686;51.716;7.016;2022-10-24T06:01:43;7.15;;;2.13;;
71836;SDS011;59686;51.716;7.016;2022-10-24T06:04:09;4.20;;;1.92;;
71836;SDS011;59686;51.716;7.016;2022-10-24T06:06:38;4.97;;;2.00;;
71836;SDS011;59686;51.716;7.016;2022-10-24T06:09:05;7.28;;;2.22;;
71836;SDS011;59686;51.716;7.016;2022-10-24T06:11:31;6.30;;;2.50;;
71836;SDS011;59686;51.716;7.016;2022-10-24T06:13:59;5.82;;;1.98;;
71836;SDS011;59686;51.716;7.016;2022-10-24T06:16:25;3.28;;;1.95;;
71836;SDS011;59686;51.716;7.016;2022-10-24T06:18:54;3.30;;;2.13;;
71836;SDS011;59686;51.716;7.016;2022-10-24T06:21:20;5.50;;;2.20;;
71836;SDS011;59686;51.716;7.016;2022-10-24T06:23:46;4.68;;;1.92;;
71836;SDS011;59686;51.716;7.016;2022-10-24T06:26:12;5.97;;;1.98;;
71836;SDS011;59686;51.716;7.016;2022-10-24T06:28:38;4.10;;;2.42;;
71836;SDS011;59686;51.716;7.016;2022-10-24T06:31:05;10.15;;;2.45;;
71836;SDS011;59686;51.716;7.016;2022-10-24T06:33:33;6.78;;;2.08;;
71836;SDS011;59686;51.716;7.016;2022-10-24T06:35:59;4.88;;;2.05;;
71836;SDS011;59686;51.716;7.016;2022-10-24T06:38:26;5.18;;;1.77;;
71836;SDS011;59686;51.716;7.016;2022-10-24T06:40:53;9.43;;;2.35;;
71836;SDS011;59686;51.716;7.016;2022-10-24T06:43:19;5.18;;;2.33;;
71836;SDS011;59686;51.716;7.016;2022-10-24T06:45:45;6.95;;;2.30;;
71836;SDS011;59686;51.716;7.016;2022-10-24T06:48:16;7.15;;;2.00;;
71836;SDS011;59686;51.716;7.016;2022-10-24T06:50:41;3.92;;;2.00;;
71836;SDS011;59686;51.716;7.016;2022-10-24T06:53:07;5.72;;;2.10;;
71836;SDS011;59686;51.716;7.016;2022-10-24T06:55:38;5.60;;;2.28;;
71836;SDS011;59686;51.716;7.016;2022-10-24T06:58:04;4.20;;;1.90;;
71836;SDS011;59686;51.716;7.016;2022-10-24T07:00:32;7.75;;;2.05;;
71836;SDS011;59686;51.716;7.016;2022-10-24T07:02:58;4.38;;;1.75;;
71836;SDS011;59686;51.716;7.016;2022-10-24T07:05:24;6.18;;;2.22;;
71836;SDS011;59686;51.716;7.016;2022-10-24T07:07:49;4.00;;;2.00;;
71836;SDS011;59686;51.716;7.016;2022-10-24T07:10:15;5.28;;;2.00;;
71836;SDS011;59686;51.716;7.016;2022-10-24T07:12:45;6.75;;;2.05;;
71836;SDS011;59686;51.716;7.016;2022-10-24T07:15:11;5.97;;;1.95;;
71836;SDS011;59686;51.716;7.016;2022-10-24T07:17:38;5.47;;;2.00;;
71836;SDS011;59686;51.716;7.016;2022-10-24T07:20:05;4.88;;;1.88;;
71836;SDS011;59686;51.716;7.016;2022-10-24T07:22:31;4.03;;;1.80;;
71836;SDS011;59686;51.716;7.016;2022-10-24T07:24:57;3.40;;;2.00;;
71836;SDS011;59686;51.716;7.016;2022-10-24T07:27:23;4.40;;;2.17;;
71836;SDS011;59686;51.716;7.016;2022-10-24T07:29:49;8.63;;;2.58;;
71836;SDS011;59686;51.716;7.016;2022-10-24T07:32:15;5.15;;;1.92;;
71836;SDS011;59686;51.716;7.016;2022-10-24T07:34:42;7.80;;;1.80;;
71836;SDS011;59686;51.716;7.016;2022-10-24T07:37:08;5.90;;;2.15;;
71836;SDS011;59686;51.716;7.016;2022-10-24T07:39:33;5.15;;;1.77;;
71836;SDS011;59686;51.716;7.016;2022-10-24T07:41:59;6.45;;;2.50;;
71836;SDS011;59686;51.716;7.016;2022-10-24T07:44:25;4.70;;;2.05;;
71836;SDS011;59686;51.716;7.016;2022-10-24T07:46:50;8.18;;;2.05;;
71836;SDS011;59686;51.716;7.016;2022-10-24T07:49:16;5.75;;;2.08;;
71836;SDS011;59686;51.716;7.016;2022-10-24T07:51:42;2.88;;;1.70;;
71836;SDS011;59686;51.716;7.016;2022-10-24T07:54:07;3.78;;;1.90;;
71836;SDS011;59686;51.716;7.016;2022-10-24T07:56:33;5.10;;;1.65;;
71836;SDS011;59686;51.716;7.016;2022-10-24T07:58:59;5.55;;;1.65;;
71836;SDS011;59686;51.716;7.016;2022-10-24T08:01:30;6.70;;;2.03;;
71836;SDS011;59686;51.716;7.016;2022-10-24T08:03:56;5.90;;;1.70;;
71836;SDS011;59686;51.716;7.016;2022-10-24T08:06:27;6.47;;;1.77;;
71836;SDS011;59686;51.716;7.016;2022-10-24T08:08:54;6.38;;;2.00;;
71836;SDS011;59686;51.716;7.016;2022-10-24T08:11:22;3.13;;;1.90;;
71836;SDS011;59686;51.716;7.016;2022-10-24T08:13:50;3.53;;;1.70;;
71836;SDS011;59686;51.716;7.016;2022-10-24T08:16:18;4.07;;;1.70;;
71836;SDS011;59686;51.716;7.016;2022-10-24T08:18:45;3.67;;;2.00;;
71836;SDS011;59686;51.716;7.016;2022-10-24T08:21:14;3.95;;;1.60;;
71836;SDS011;59686;51.716;7.016;2022-10-24T08:23:42;5.85;;;1.67;;
71836;SDS011;59686;51.716;7.016;2022-10-24T08:26:11;7.32;;;1.92;;
71836;SDS011;59686;51.716;7.016;2022-10-24T08:28:38;4.50;;;1.60;;
71836;SDS011;59686;51.716;7.016;2022-10-24T08:31:06;5.70;;;2.00;;
71836;SDS011;59686;51.716;7.016;2022-10-24T08:33:35;7.28;;;1.95;;
71836;SDS011;59686;51.716;7.016;2022-10-24T08:36:02;4.72;;;1.73;;
71836;SDS011;59686;51.716;7.016;2022-10-24T08:38:30;4.97;;;1.83;;
71836;SDS011;59686;51.716;7.016;2022-10-24T08:40:56;3.42;;;1.33;;
71836;SDS011;59686;51.716;7.016;2022-10-24T08:43:22;7.32;;;1.67;;
71836;SDS011;59686;51.716;7.016;2022-10-24T08:46:04;3.53;;;1.40;;
71836;SDS011;59686;51.716;7.016;2022-10-24T08:48:43;5.63;;;1.50;;
71836;SDS011;59686;51.716;7.016;2022-10-24T08:51:42;4.45;;;1.70;;
71836;SDS011;59686;51.716;7.016;2022-10-24T08:54:13;7.57;;;1.67;;
71836;SDS011;59686;51.716;7.016;2022-10-24T08:56:44;8.70;;;2.20;;
71836;SDS011;59686;51.716;7.016;2022-10-24T08:59:11;5.15;;;1.95;;
71836;SDS011;59686;51.716;7.016;2022-10-24T09:04:07;6.28;;;2.10;;
71836;SDS011;59686;51.716;7.016;2022-10-24T09:06:35;6.82;;;1.55;;
71836;SDS011;59686;51.716;7.016;2022-10-24T09:09:10;3.78;;;1.73;;
71836;SDS011;59686;51.716;7.016;2022-10-24T09:12:05;5.95;;;1.83;;
71836;SDS011;59686;51.716;7.016;2022-10-24T09:14:37;5.45;;;1.52;;
71836;SDS011;59686;51.716;7.016;2022-10-24T09:17:13;5.60;;;1.85;;
71836;SDS011;59686;51.716;7.016;2022-10-24T09:19:45;4.97;;;1.73;;
71836;SDS011;59686;51.716;7.016;2022-10-24T09:22:18;4.88;;;1.60;;
71836;SDS011;59686;51.716;7.016;2022-10-24T09:25:11;3.30;;;1.50;;
71836;SDS011;59686;51.716;7.016;2022-10-24T09:27:39;4.78;;;1.63;;
71836;SDS011;59686;51.716;7.016;2022-10-24T09:30:06;4.18;;;1.45;;
71836;SDS011;59686;51.716;7.016;2022-10-24T09:32:38;3.90;;;1.75;;
71836;SDS011;59686;51.716;7.016;2022-10-24T09:35:08;7.47;;;2.20;;
71836;SDS011;59686;51.716;7.016;2022-10-24T09:37:41;5.28;;;1.80;;
71836;SDS011;59686;51.716;7.016;2022-10-24T09:48:01;10.38;;;2.03;;
71836;SDS011;59686;51.716;7.016;2022-10-24T09:50:30;10.52;;;2.03;;
71836;SDS011;59686;51.716;7.016;2022-10-24T09:52:59;6.60;;;2.03;;
71836;SDS011;59686;51.716;7.016;2022-10-24T09:55:27;8.23;;;2.03;;
71836;SDS011;59686;51.716;7.016;2022-10-24T09:57:54;8.43;;;1.80;;
71836;SDS011;59686;51.716;7.016;2022-10-24T10:00:41;5.55;;;2.13;;
71836;SDS011;59686;51.716;7.016;2022-10-24T10:08:17;10.73;;;2.03;;
71836;SDS011;59686;51.716;7.016;2022-10-24T10:11:07;5.13;;;1.83;;
71836;SDS011;59686;51.716;7.016;2022-10-24T10:13:44;5.70;;;1.67;;
71836;SDS011;59686;51.716;7.016;2022-10-24T10:16:22;6.20;;;1.80;;
71836;SDS011;59686;51.716;7.016;2022-10-24T10:19:04;9.85;;;1.73;;
71836;SDS011;59686;51.716;7.016;2022-10-24T10:21:58;8.32;;;1.90;;
71836;SDS011;59686;51.716;7.016;2022-10-24T10:24:42;8.20;;;2.22;;
71836;SDS011;59686;51.716;7.016;2022-10-24T10:29:48;12.25;;;2.00;;
71836;SDS011;59686;51.716;7.016;2022-10-24T10:32:29;8.25;;;2.10;;
71836;SDS011;59686;51.716;7.016;2022-10-24T10:35:09;10.95;;;2.60;;
71836;SDS011;59686;51.716;7.016;2022-10-24T10:52:11;8.88;;;2.22;;
71836;SDS011;59686;51.716;7.016;2022-10-24T10:54:54;8.52;;;2.30;;
71836;SDS011;59686;51.716;7.016;2022-10-24T11:11:50;7.03;;;1.95;;
71836;SDS011;59686;51.716;7.016;2022-10-24T11:14:37;7.97;;;2.15;;
71836;SDS011;59686;51.716;7.016;2022-10-24T11:17:11;6.45;;;1.92;;
71836;SDS011;59686;51.716;7.016;2022-10-24T11:22:47;5.63;;;1.83;;
71836;SDS011;59686;51.716;7.016;2022-10-24T11:33:21;4.78;;;1.75;;
71836;SDS011;59686;51.716;7.016;2022-10-24T11:35:59;6.20;;;1.98;;
71836;SDS011;59686;51.716;7.016;2022-10-24T11:38:26;7.55;;;2.13;;
71836;SDS011;59686;51.716;7.016;2022-10-24T11:40:54;7.07;;;2.08;;
71836;SDS011;59686;51.716;7.016;2022-10-24T11:43:25;6.18;;;2.08;;
71836;SDS011;59686;51.716;7.016;2022-10-24T11:45:58;14.88;;;2.33;;
71836;SDS011;59686;51.716;7.016;2022-10-24T11:48:37;7.68;;;1.95;;
71836;SDS011;59686;51.716;7.016;2022-10-24T11:51:20;7.60;;;2.08;;
71836;SDS011;59686;51.716;7.016;2022-10-24T11:54:02;9.30;;;2.17;;
71836;SDS011;59686;51.716;7.016;2022-10-24T11:56:41;5.32;;;1.77;;
71836;SDS011;59686;51.716;7.016;2022-10-24T11:59:18;5.07;;;1.90;;
71836;SDS011;59686;51.716;7.016;2022-10-24T12:04:31;5.28;;;1.85;;
71836;SDS011;59686;51.716;7.016;2022-10-24T12:07:24;7.55;;;2.33;;
71836;SDS011;59686;51.716;7.016;2022-10-24T12:12:54;5.63;;;2.03;;
71836;SDS011;59686;51.716;7.016;2022-10-24T12:18:42;9.80;;;2.25;;
71836;SDS011;59686;51.716;7.016;2022-10-24T12:21:12;4.45;;;1.70;;
71836;SDS011;59686;51.716;7.016;2022-10-24T12:23:41;6.25;;;2.28;;
71836;SDS011;59686;51.716;7.016;2022-10-24T12:28:59;6.38;;;2.17;;
71836;SDS011;59686;51.716;7.016;2022-10-24T12:31:28;7.63;;;2.30;;
71836;SDS011;59686;51.716;7.016;2022-10-24T12:39:31;6.22;;;1.98;;
71836;SDS011;59686;51.716;7.016;2022-10-24T12:42:11;7.43;;;2.08;;
71836;SDS011;59686;51.716;7.016;2022-10-24T12:47:27;6.57;;;1.95;;
71836;SDS011;59686;51.716;7.016;2022-10-24T12:49:56;6.93;;;1.90;;
71836;SDS011;59686;51.716;7.016;2022-10-24T12:54:55;6.72;;;2.30;;
71836;SDS011;59686;51.716;7.016;2022-10-24T12:57:31;9.18;;;2.22;;
71836;SDS011;59686;51.716;7.016;2022-10-24T13:00:20;11.15;;;2.13;;
71836;SDS011;59686;51.716;7.016;2022-10-24T13:03:05;11.05;;;2.03;;
71836;SDS011;59686;51.716;7.016;2022-10-24T13:08:33;8.15;;;2.22;;
71836;SDS011;59686;51.716;7.016;2022-10-24T13:13:56;6.97;;;1.80;;
71836;SDS011;59686;51.716;7.016;2022-10-24T13:16:35;6.05;;;2.17;;
71836;SDS011;59686;51.716;7.016;2022-10-24T13:19:22;4.85;;;2.13;;
71836;SDS011;59686;51.716;7.016;2022-10-24T13:21:50;8.50;;;2.58;;
71836;SDS011;59686;51.716;7.016;2022-10-24T13:42:41;9.60;;;2.22;;
71836;SDS011;59686;51.716;7.016;2022-10-24T13:48:19;5.88;;;1.85;;
71836;SDS011;59686;51.716;7.016;2022-10-24T13:53:47;7.97;;;2.42;;
71836;SDS011;59686;51.716;7.016;2022-10-24T13:56:18;6.25;;;2.15;;
71836;SDS011;59686;51.716;7.016;2022-10-24T13:58:44;8.82;;;1.92;;
71836;SDS011;59686;51.716;7.016;2022-10-24T14:06:28;5.90;;;2.33;;
71836;SDS011;59686;51.716;7.016;2022-10-24T14:08:56;8.90;;;2.67;;
71836;SDS011;59686;51.716;7.016;2022-10-24T14:11:25;7.95;;;1.63;;
71836;SDS011;59686;51.716;7.016;2022-10-24T14:13:53;9.07;;;2.40;;
71836;SDS011;59686;51.716;7.016;2022-10-24T14:21:45;6.63;;;2.05;;
71836;SDS011;59686;51.716;7.016;2022-10-24T14:24:15;5.88;;;1.90;;
71836;SDS011;59686;51.716;7.016;2022-10-24T14:26:46;9.02;;;1.98;;
71836;SDS011;59686;51.716;7.016;2022-10-24T14:32:02;7.43;;;1.95;;
71836;SDS011;59686;51.716;7.016;2022-10-24T14:34:32;5.45;;;1.95;;
71836;SDS011;59686;51.716;7.016;2022-10-24T14:37:03;7.13;;;1.70;;
71836;SDS011;59686;51.716;7.016;2022-10-24T14:39:33;7.82;;;2.47;;
71836;SDS011;59686;51.716;7.016;2022-10-24T14:41:59;7.18;;;1.88;;
71836;SDS011;59686;51.716;7.016;2022-10-24T14:44:26;8.00;;;2.10;;
71836;SDS011;59686;51.716;7.016;2022-10-24T14:47:03;6.28;;;1.90;;
71836;SDS011;59686;51.716;7.016;2022-10-24T14:49:48;6.10;;;1.80;;
71836;SDS011;59686;51.716;7.016;2022-10-24T14:54:55;4.30;;;1.88;;
71836;SDS011;59686;51.716;7.016;2022-10-24T14:57:24;4.20;;;1.92;;
71836;SDS011;59686;51.716;7.016;2022-10-24T14:59:51;4.88;;;1.73;;
71836;SDS011;59686;51.716;7.016;2022-10-24T15:02:28;7.97;;;2.75;;
71836;SDS011;59686;51.716;7.016;2022-10-24T15:07:54;8.70;;;3.00;;
71836;SDS011;59686;51.716;7.016;2022-10-24T15:10:24;8.50;;;3.78;;
71836;SDS011;59686;51.716;7.016;2022-10-24T15:13:19;10.32;;;4.03;;
71836;SDS011;59686;51.716;7.016;2022-10-24T15:18:24;7.47;;;3.70;;
71836;SDS011;59686;51.716;7.016;2022-10-24T15:20:53;9.65;;;3.50;;
71836;SDS011;59686;51.716;7.016;2022-10-24T15:23:28;7.05;;;3.45;;
71836;SDS011;59686;51.716;7.016;2022-10-24T15:25:57;9.98;;;3.90;;
71836;SDS011;59686;51.716;7.016;2022-10-24T15:31:18;8.43;;;3.33;;
71836;SDS011;59686;51.716;7.016;2022-10-24T15:33:44;7.07;;;2.85;;
71836;SDS011;59686;51.716;7.016;2022-10-24T15:36:15;9.57;;;3.00;;
71836;SDS011;59686;51.716;7.016;2022-10-24T15:38:53;5.80;;;2.75;;
71836;SDS011;59686;51.716;7.016;2022-10-24T15:41:20;9.05;;;2.63;;
71836;SDS011;59686;51.716;7.016;2022-10-24T15:43:46;8.25;;;2.88;;
71836;SDS011;59686;51.716;7.016;2022-10-24T15:46:11;6.65;;;2.70;;
71836;SDS011;59686;51.716;7.016;2022-10-24T15:48:37;5.22;;;2.50;;
71836;SDS011;59686;51.716;7.016;2022-10-24T15:51:03;6.25;;;2.58;;
71836;SDS011;59686;51.716;7.016;2022-10-24T15:53:30;7.00;;;2.50;;
71836;SDS011;59686;51.716;7.016;2022-10-24T15:55:55;6.68;;;2.50;;
71836;SDS011;59686;51.716;7.016;2022-10-24T15:58:21;4.70;;;2.42;;
71836;SDS011;59686;51.716;7.016;2022-10-24T16:00:48;5.80;;;2.00;;
71836;SDS011;59686;51.716;7.016;2022-10-24T16:03:16;5.32;;;2.13;;
71836;SDS011;59686;51.716;7.016;2022-10-24T16:05:45;6.97;;;2.42;;
71836;SDS011;59686;51.716;7.016;2022-10-24T16:08:20;8.30;;;2.35;;
71836;SDS011;59686;51.716;7.016;2022-10-24T16:10:47;6.90;;;2.40;;
71836;SDS011;59686;51.716;7.016;2022-10-24T16:13:15;3.50;;;1.88;;
71836;SDS011;59686;51.716;7.016;2022-10-24T16:15:41;5.43;;;2.35;;
71836;SDS011;59686;51.716;7.016;2022-10-24T16:18:07;4.82;;;2.50;;
71836;SDS011;59686;51.716;7.016;2022-10-24T16:20:34;4.25;;;2.05;;
71836;SDS011;59686;51.716;7.016;2022-10-24T16:23:00;4.45;;;2.20;;
71836;SDS011;59686;51.716;7.016;2022-10-24T16:25:34;3.13;;;2.03;;
71836;SDS011;59686;51.716;7.016;2022-10-24T16:28:01;7.32;;;2.42;;
71836;SDS011;59686;51.716;7.016;2022-10-24T16:30:28;5.50;;;2.95;;
71836;SDS011;59686;51.716;7.016;2022-10-24T16:32:56;6.45;;;2.90;;
71836;SDS011;59686;51.716;7.016;2022-10-24T16:35:23;5.63;;;3.00;;
71836;SDS011;59686;51.716;7.016;2022-10-24T16:37:51;5.13;;;2.70;;
71836;SDS011;59686;51.716;7.016;2022-10-24T16:40:18;5.85;;;2.88;;
71836;SDS011;59686;51.716;7.016;2022-10-24T16:42:44;8.75;;;3.38;;
71836;SDS011;59686;51.716;7.016;2022-10-24T16:45:13;8.63;;;2.95;;
71836;SDS011;59686;51.716;7.016;2022-10-24T16:47:39;5.70;;;2.83;;
71836;SDS011;59686;51.716;7.016;2022-10-24T16:50:05;7.00;;;3.22;;
71836;SDS011;59686;51.716;7.016;2022-10-24T16:52:32;4.82;;;2.42;;
71836;SDS011;59686;51.716;7.016;2022-10-24T16:54:58;8.50;;;2.65;;
71836;SDS011;59686;51.716;7.016;2022-10-24T16:57:23;6.28;;;2.67;;
71836;SDS011;59686;51.716;7.016;2022-10-24T16:59:50;8.35;;;3.05;;
71836;SDS011;59686;51.716;7.016;2022-10-24T17:02:15;5.47;;;3.20;;
71836;SDS011;59686;51.716;7.016;2022-10-24T17:04:45;7.55;;;2.88;;
71836;SDS011;59686;51.716;7.016;2022-10-24T17:07:11;4.53;;;2.50;;
71836;SDS011;59686;51.716;7.016;2022-10-24T17:09:37;7.00;;;3.08;;
71836;SDS011;59686;51.716;7.016;2022-10-24T17:12:04;6.82;;;2.90;;
71836;SDS011;59686;51.716;7.016;2022-10-24T17:14:34;6.45;;;3.10;;
71836;SDS011;59686;51.716;7.016;2022-10-24T17:17:01;7.00;;;2.88;;
71836;SDS011;59686;51.716;7.016;2022-10-24T17:19:28;7.25;;;3.00;;
71836;SDS011;59686;51.716;7.016;2022-10-24T17:21:54;8.82;;;3.60;;
71836;SDS011;59686;51.716;7.016;2022-10-24T17:24:22;8.57;;;2.92;;
71836;SDS011;59686;51.716;7.016;2022-10-24T17:26:50;7.90;;;2.97;;
71836;SDS011;59686;51.716;7.016;2022-10-24T17:29:21;6.47;;;2.80;;
71836;SDS011;59686;51.716;7.016;2022-10-24T17:31:52;5.18;;;2.40;;
71836;SDS011;59686;51.716;7.016;2022-10-24T17:34:18;6.18;;;3.00;;
71836;SDS011;59686;51.716;7.016;2022-10-24T17:36:46;6.68;;;2.80;;
71836;SDS011;59686;51.716;7.016;2022-10-24T17:39:22;7.97;;;2.30;;
71836;SDS011;59686;51.716;7.016;2022-10-24T17:41:51;5.35;;;2.40;;
71836;SDS011;59686;51.716;7.016;2022-10-24T17:44:20;3.92;;;2.15;;
71836;SDS011;59686;51.716;7.016;2022-10-24T17:46:45;8.88;;;2.50;;
71836;SDS011;59686;51.716;7.016;2022-10-24T17:49:11;8.48;;;2.50;;
71836;SDS011;59686;51.716;7.016;2022-10-24T17:51:41;5.75;;;2.40;;
71836;SDS011;59686;51.716;7.016;2022-10-24T17:54:09;4.18;;;2.20;;